createdAt,value
2022-10-19T00:00:06.520Z,23.1
2022-10-19T00:15:03.056Z,23.1
2022-10-19T00:30:04.856Z,23.1
2022-10-19T00:45:02.802Z,23.0
2022-10-19T01:00:03.296Z,23
2022-10-19T01:15:02.834Z,23
2022-10-19T01:30:04.281Z,22.9
2022-10-19T01:45:02.278Z,22.9
2022-10-19T02:00:05.400Z,22.9
2022-10-19T02:15:03.112Z,22.9
2022-10-19T02:30:06.119Z,22.9
2022-10-19T02:45:02.232Z,22.9
2022-10-19T03:00:05.132Z,22.8
2022-10-19T03:15:02.193Z,22.8
2022-10-19T03:30:06.025Z,22.8
2022-10-19T03:45:05.880Z,22.8
2022-10-19T04:00:07.907Z,22.8
2022-10-19T04:15:02.277Z,22.8
2022-10-19T04:30:08.106Z,22.8
2022-10-19T04:45:05.704Z,22.7
2022-10-19T05:00:07.556Z,22.7
2022-10-19T05:15:03.551Z,22.7
2022-10-19T05:30:07.060Z,22.7
2022-10-19T05:45:02.597Z,22.7
2022-10-19T06:00:08.126Z,22.7
2022-10-19T06:15:04.878Z,22.7
2022-10-19T06:30:14.168Z,22.8
2022-10-19T06:45:03.723Z,22.8
2022-10-19T07:00:08.744Z,22.8
2022-10-19T07:15:01.859Z,22.9
2022-10-19T07:30:08.344Z,22.9
2022-10-19T07:45:03.864Z,22.9
2022-10-19T08:00:08.104Z,23
2022-10-19T08:15:03.440Z,23
2022-10-19T08:30:06.216Z,23.0
2022-10-19T08:45:02.530Z,23.1
2022-10-19T09:00:08.239Z,23.1
2022-10-19T09:15:04.145Z,23.1
2022-10-19T09:30:07.034Z,23.1
2022-10-19T09:45:03.554Z,23.1
2022-10-19T10:00:06.413Z,23.2
2022-10-19T10:15:01.967Z,23.2
2022-10-19T10:30:04.423Z,23.2
2022-10-19T10:45:03.162Z,23.2
2022-10-19T11:00:05.611Z,23.2
2022-10-19T11:15:03.097Z,23.3
2022-10-19T11:30:06.837Z,23.3
2022-10-19T11:45:06.067Z,23.3
2022-10-19T12:00:13.412Z,23.3
2022-10-19T12:15:03.234Z,23.3
2022-10-19T12:30:06.371Z,23.3
2022-10-19T12:45:02.679Z,23.3
2022-10-19T13:00:05.746Z,23.4
2022-10-19T13:15:05.493Z,23.4
2022-10-19T13:30:06.230Z,23.4
2022-10-19T13:45:03.863Z,23.4
2022-10-19T14:00:08.321Z,23.5
2022-10-19T14:15:03.125Z,23.5
2022-10-19T14:30:09.910Z,23.5
2022-10-19T14:45:02.716Z,23.5
2022-10-19T15:00:08.318Z,23.5
2022-10-19T15:15:02.314Z,23.4
2022-10-19T15:30:07.724Z,23.4
2022-10-19T15:45:04.039Z,23.4
2022-10-19T16:00:07.518Z,23.4
2022-10-19T16:15:03.125Z,23.3
2022-10-19T16:30:06.011Z,23.3
2022-10-19T16:45:08.541Z,23.3
2022-10-19T17:00:08.739Z,23.2
2022-10-19T17:15:30.139Z,23.1
2022-10-19T17:30:09.338Z,23.1
2022-10-19T17:45:03.513Z,23.1
2022-10-19T18:00:07.760Z,23.0
2022-10-19T18:15:03.958Z,23
2022-10-19T18:30:05.499Z,23
2022-10-19T18:45:03.448Z,22.9
2022-10-19T19:00:10.997Z,22.9
2022-10-19T19:15:03.904Z,22.9
2022-10-19T19:30:05.883Z,22.8
2022-10-19T19:45:04.035Z,22.8
2022-10-19T20:00:14.235Z,22.8
2022-10-19T20:15:04.363Z,22.7
2022-10-19T20:30:06.858Z,22.7
2022-10-19T20:45:03.052Z,22.7
2022-10-19T21:00:04.374Z,22.7
2022-10-19T21:15:03.841Z,22.7
2022-10-19T21:30:07.151Z,22.6
2022-10-19T21:45:18.175Z,22.6
2022-10-19T22:00:05.480Z,22.6
2022-10-19T22:15:02.665Z,22.6
2022-10-19T22:30:04.294Z,22.6
2022-10-19T22:45:02.687Z,22.5
2022-10-19T23:00:04.023Z,22.5
2022-10-19T23:15:01.879Z,22.5
2022-10-19T23:30:02.993Z,22.5
2022-10-19T23:45:02.963Z,22.5
